Time;durP1;ratioP1;P1;durP2;ratioP2;P2;SDS_P1;SDS_P2;PMS_P1;PMS_P2;Temp;Humidity;BMP_temperature;BMP_pressure;BME280_temperature;BME280_humidity;BME280_pressure;Samples;Min_cycle;Max_cycle;Signal;HPM_P1;HPM_P2
2024/01/24 00:02:12;;;;;;;1.70;1.10;;;22.50;40.20;;;;;;5111084;28;20056;-41
2024/01/24 00:04:38;;;;;;;2.10;1.05;;;22.50;40.20;;;;;;5111133;28;20050;-38
2024/01/24 00:07:04;;;;;;;1.73;1.15;;;22.50;40.20;;;;;;5112029;28;20700;-37
2024/01/24 00:09:32;;;;;;;1.45;1.20;;;22.50;40.30;;;;;;5110496;28;20045;-38
2024/01/24 00:11:59;;;;;;;2.35;1.30;;;22.50;40.40;;;;;;5112250;28;20108;-37
2024/01/24 00:14:25;;;;;;;1.25;1.15;;;22.50;40.50;;;;;;5112419;28;20036;-38
2024/01/24 00:16:51;;;;;;;2.27;1.50;;;22.50;40.50;;;;;;5109760;28;20039;-39
2024/01/24 00:19:17;;;;;;;1.63;1.30;;;22.40;40.30;;;;;;5113006;28;20354;-38
2024/01/24 00:21:44;;;;;;;1.42;1.10;;;22.50;40.30;;;;;;5109584;28;20042;-38
2024/01/24 00:24:11;;;;;;;1.52;1.00;;;22.50;40.20;;;;;;5111427;28;20030;-39
2024/01/24 00:26:37;;;;;;;1.60;1.33;;;22.50;40.40;;;;;;5112537;28;20040;-38
2024/01/24 00:29:04;;;;;;;1.23;1.08;;;22.50;40.40;;;;;;5117035;28;20053;-39
2024/01/24 00:31:30;;;;;;;2.27;1.27;;;22.50;40.40;;;;;;5116538;28;20035;-38
2024/01/24 00:33:56;;;;;;;1.70;1.30;;;22.40;40.50;;;;;;5119237;28;20032;-37
2024/01/24 00:36:23;;;;;;;1.75;1.05;;;22.40;40.30;;;;;;5112949;28;20096;-36
2024/01/24 00:38:49;;;;;;;1.40;1.00;;;22.50;40.40;;;;;;5116288;28;20059;-37
2024/01/24 00:41:15;;;;;;;1.48;1.35;;;22.50;40.30;;;;;;5115131;28;20317;-37
2024/01/24 00:43:44;;;;;;;1.50;0.93;;;22.50;40.30;;;;;;5116784;28;20051;-39
2024/01/24 00:46:10;;;;;;;1.52;1.20;;;22.50;40.40;;;;;;5115684;28;20032;-38
2024/01/24 00:48:37;;;;;;;1.42;1.05;;;22.40;40.50;;;;;;5113495;28;20484;-37
2024/01/24 00:51:03;;;;;;;1.30;1.00;;;22.40;40.50;;;;;;5117535;28;20039;-36
2024/01/24 00:53:29;;;;;;;1.30;1.20;;;22.40;40.50;;;;;;5117686;28;20036;-37
2024/01/24 00:55:56;;;;;;;1.97;1.20;;;22.50;40.50;;;;;;5113677;28;20032;-38
2024/01/24 00:58:22;;;;;;;1.40;1.10;;;22.50;40.40;;;;;;5115503;28;20027;-34
2024/01/24 01:00:48;;;;;;;1.33;1.23;;;22.50;40.50;;;;;;5115456;28;20131;-38
2024/01/24 01:03:15;;;;;;;1.70;1.02;;;22.50;40.50;;;;;;5115151;28;20506;-34
2024/01/24 01:05:41;;;;;;;1.63;1.20;;;22.40;40.50;;;;;;5122187;28;20058;-37
2024/01/24 01:08:07;;;;;;;1.33;1.17;;;22.40;40.60;;;;;;5119805;28;20039;-37
2024/01/24 01:10:33;;;;;;;1.20;1.00;;;22.40;40.50;;;;;;5113416;28;20051;-35
2024/01/24 01:12:59;;;;;;;2.27;1.23;;;22.40;41.00;;;;;;5115812;28;20034;-37
2024/01/24 01:15:26;;;;;;;0.98;0.88;;;22.40;40.50;;;;;;5115276;28;20062;-36
2024/01/24 01:17:52;;;;;;;1.38;1.02;;;22.40;40.50;;;;;;5118049;27;20031;-38
2024/01/24 01:20:21;;;;;;;1.40;1.08;;;22.40;40.60;;;;;;5114939;27;20030;-37
2024/01/24 01:22:47;;;;;;;1.63;1.10;;;22.40;40.60;;;;;;5114000;28;20028;-38
2024/01/24 01:25:13;;;;;;;1.40;1.17;;;22.40;40.60;;;;;;5110800;28;20028;-36
2024/01/24 01:27:40;;;;;;;1.85;1.33;;;22.40;40.60;;;;;;5111637;28;20048;-36
2024/01/24 01:30:07;;;;;;;1.77;0.90;;;22.40;40.50;;;;;;5112331;28;20109;-37
2024/01/24 01:32:33;;;;;;;2.58;0.95;;;22.40;40.70;;;;;;5116022;28;20019;-37
2024/01/24 01:34:59;;;;;;;1.67;1.10;;;22.40;40.80;;;;;;5109172;28;20043;-35
2024/01/24 01:37:26;;;;;;;1.60;1.30;;;22.40;41.00;;;;;;5111700;28;20027;-36
2024/01/24 01:39:52;;;;;;;2.40;1.42;;;22.40;41.10;;;;;;5107717;28;20037;-36
2024/01/24 01:42:18;;;;;;;1.77;0.98;;;22.40;40.90;;;;;;5109722;28;20078;-35
2024/01/24 01:44:47;;;;;;;3.28;1.30;;;22.40;40.90;;;;;;5114373;27;20028;-37
2024/01/24 01:47:14;;;;;;;1.70;1.30;;;22.40;40.70;;;;;;5112170;28;20043;-38
2024/01/24 01:49:42;;;;;;;1.38;1.27;;;22.40;40.70;;;;;;5115605;28;20047;-37
2024/01/24 01:52:09;;;;;;;1.63;1.10;;;22.40;40.70;;;;;;5112225;28;20035;-38
2024/01/24 01:54:35;;;;;;;1.85;1.35;;;22.40;40.90;;;;;;5111013;28;20054;-35
2024/01/24 01:57:02;;;;;;;1.13;1.00;;;22.40;40.90;;;;;;5111367;27;20041;-37
2024/01/24 01:59:28;;;;;;;1.17;1.07;;;22.30;40.80;;;;;;5108040;28;20113;-35
2024/01/24 02:01:54;;;;;;;1.52;1.17;;;22.40;40.80;;;;;;5120439;27;20079;-38
2024/01/24 02:04:21;;;;;;;1.65;1.00;;;22.40;40.70;;;;;;5114151;28;20076;-37
2024/01/24 02:06:47;;;;;;;1.98;1.20;;;22.40;40.70;;;;;;5109839;27;20032;-35
2024/01/24 02:09:13;;;;;;;1.42;1.17;;;22.40;40.80;;;;;;5112647;28;20050;-36
2024/01/24 02:11:40;;;;;;;1.20;1.10;;;22.40;40.90;;;;;;5113134;28;20028;-38
2024/01/24 02:14:06;;;;;;;1.17;0.95;;;22.40;40.90;;;;;;5115890;28;20038;-38
2024/01/24 02:16:32;;;;;;;1.67;1.20;;;22.30;40.90;;;;;;5116921;27;20027;-37
2024/01/24 02:18:58;;;;;;;1.80;1.30;;;22.40;41.20;;;;;;5116224;28;20152;-35
2024/01/24 02:21:25;;;;;;;1.70;1.30;;;22.40;41.00;;;;;;5115233;28;21654;-34
2024/01/24 02:23:51;;;;;;;1.90;1.42;;;22.40;41.00;;;;;;5114519;28;20038;-38
2024/01/24 02:26:17;;;;;;;1.73;1.37;;;22.40;41.00;;;;;;5115204;28;20058;-36
2024/01/24 02:28:43;;;;;;;2.08;1.50;;;22.40;41.10;;;;;;5115290;28;20070;-37
2024/01/24 02:31:10;;;;;;;1.70;1.20;;;22.40;41.20;;;;;;5114514;28;20165;-38
2024/01/24 02:33:36;;;;;;;1.48;1.20;;;22.30;41.00;;;;;;5113963;27;20492;-36
2024/01/24 02:36:02;;;;;;;2.25;1.20;;;22.40;41.00;;;;;;5111507;28;20028;-33
2024/01/24 02:38:28;;;;;;;1.50;1.40;;;22.40;40.90;;;;;;5108803;28;20054;-37
2024/01/24 02:40:54;;;;;;;1.65;1.20;;;22.40;40.90;;;;;;5107350;28;20193;-37
2024/01/24 02:43:20;;;;;;;1.77;1.30;;;22.40;40.90;;;;;;5114725;28;20035;-36
2024/01/24 02:45:47;;;;;;;2.00;1.20;;;22.40;41.00;;;;;;5121627;28;20031;-35
2024/01/24 02:48:13;;;;;;;2.03;1.30;;;22.40;41.10;;;;;;5116737;28;20042;-36
2024/01/24 02:50:39;;;;;;;1.98;1.33;;;22.30;41.00;;;;;;5104953;28;20040;-37
2024/01/24 02:53:05;;;;;;;1.38;1.27;;;22.30;40.90;;;;;;5108064;28;20036;-35
2024/01/24 02:55:31;;;;;;;1.92;1.65;;;22.40;40.80;;;;;;5114476;28;20044;-38
2024/01/24 02:57:57;;;;;;;3.28;1.50;;;22.40;40.90;;;;;;5115910;28;20031;-36
2024/01/24 03:00:24;;;;;;;1.60;1.15;;;22.40;40.90;;;;;;5113911;28;20035;-37
2024/01/24 03:02:50;;;;;;;3.63;1.27;;;22.40;41.00;;;;;;5113281;28;20023;-36
2024/01/24 03:05:16;;;;;;;1.65;1.35;;;22.40;41.00;;;;;;5115023;27;20065;-34
2024/01/24 03:07:42;;;;;;;1.88;1.30;;;22.30;41.10;;;;;;5113580;28;20043;-38
2024/01/24 03:10:08;;;;;;;2.47;1.85;;;22.30;41.20;;;;;;5113392;28;20066;-37
2024/01/24 03:12:34;;;;;;;3.42;1.02;;;22.40;40.90;;;;;;5115090;28;20035;-36
2024/01/24 03:15:00;;;;;;;1.65;1.55;;;22.40;41.00;;;;;;5114904;28;20031;-35
2024/01/24 03:17:27;;;;;;;3.10;1.92;;;22.40;41.00;;;;;;5113523;28;20489;-36
2024/01/24 03:19:53;;;;;;;1.52;1.20;;;22.40;41.10;;;;;;5114852;27;20038;-37
2024/01/24 03:22:20;;;;;;;2.08;1.52;;;22.30;41.10;;;;;;5113072;28;20023;-38
2024/01/24 03:24:46;;;;;;;2.45;1.33;;;22.30;41.20;;;;;;5109721;28;20093;-36
2024/01/24 03:27:12;;;;;;;1.83;1.63;;;22.30;41.20;;;;;;5102965;28;20047;-34
2024/01/24 03:29:40;;;;;;;2.40;1.60;;;22.40;41.00;;;;;;5104630;28;20031;-36
2024/01/24 03:32:07;;;;;;;1.67;1.50;;;22.40;41.00;;;;;;5108099;28;20024;-37
2024/01/24 03:34:33;;;;;;;2.30;1.42;;;22.40;41.00;;;;;;5113618;28;20047;-36
2024/01/24 03:36:59;;;;;;;2.03;1.42;;;22.40;41.10;;;;;;5114345;28;20031;-36
2024/01/24 03:39:25;;;;;;;2.13;1.50;;;22.30;41.20;;;;;;5109968;28;20090;-36
2024/01/24 03:41:51;;;;;;;2.22;1.50;;;22.30;41.10;;;;;;5112217;28;20036;-36
2024/01/24 03:44:17;;;;;;;1.60;1.40;;;22.30;41.20;;;;;;5113020;28;20034;-35
2024/01/24 03:46:44;;;;;;;2.53;1.60;;;22.40;41.20;;;;;;5114011;28;20028;-43
2024/01/24 03:49:10;;;;;;;1.50;1.40;;;22.40;41.80;;;;;;5113793;28;20430;-36
2024/01/24 03:51:36;;;;;;;2.33;1.70;;;22.40;41.40;;;;;;5111098;28;20369;-38
2024/01/24 03:54:02;;;;;;;2.00;1.48;;;22.40;42.00;;;;;;5113103;28;20032;-38
2024/01/24 03:56:28;;;;;;;1.77;1.23;;;22.30;41.50;;;;;;5108150;28;20126;-34
2024/01/24 03:58:54;;;;;;;1.95;1.27;;;22.30;41.60;;;;;;5107864;28;20039;-34
2024/01/24 04:01:21;;;;;;;1.83;1.45;;;22.30;41.40;;;;;;5107413;28;20023;-34
2024/01/24 04:03:48;;;;;;;2.17;1.52;;;22.40;41.30;;;;;;5112819;28;20035;-34
2024/01/24 04:06:14;;;;;;;1.65;1.40;;;22.40;41.20;;;;;;5119047;28;20379;-35
2024/01/24 04:08:43;;;;;;;2.22;1.55;;;22.40;41.30;;;;;;5118131;28;20035;-36
2024/01/24 04:11:09;;;;;;;1.77;1.33;;;22.40;41.50;;;;;;5114443;28;20043;-38
2024/01/24 04:13:35;;;;;;;2.58;1.58;;;22.30;41.40;;;;;;5118242;27;20023;-38
2024/01/24 04:16:01;;;;;;;2.08;1.55;;;22.30;41.40;;;;;;5114096;28;20036;-37
2024/01/24 04:18:27;;;;;;;1.70;1.50;;;22.30;41.30;;;;;;5115500;28;20047;-37
2024/01/24 04:20:53;;;;;;;2.67;1.77;;;22.40;41.20;;;;;;5117357;28;20032;-37
2024/01/24 04:23:19;;;;;;;2.25;1.65;;;22.40;41.40;;;;;;5116807;28;20027;-37
2024/01/24 04:25:46;;;;;;;3.42;1.65;;;22.40;41.30;;;;;;5114592;28;20020;-35
2024/01/24 04:28:12;;;;;;;2.47;1.70;;;22.40;41.50;;;;;;5120443;28;20039;-35
2024/01/24 04:30:38;;;;;;;2.35;1.83;;;22.30;41.50;;;;;;5114855;28;20106;-38
2024/01/24 04:33:04;;;;;;;2.55;1.67;;;22.30;41.40;;;;;;5124452;28;20089;-37
2024/01/24 04:35:31;;;;;;;2.60;1.75;;;22.30;41.30;;;;;;5122392;27;20650;-37
2024/01/24 04:37:57;;;;;;;2.00;1.65;;;22.40;41.30;;;;;;5111178;28;20016;-41
2024/01/24 04:40:23;;;;;;;3.28;2.00;;;22.40;41.40;;;;;;5114213;28;20039;-36
2024/01/24 04:42:50;;;;;;;2.38;1.73;;;22.40;41.40;;;;;;5115599;28;20024;-36
2024/01/24 04:45:16;;;;;;;3.08;1.60;;;22.40;41.50;;;;;;5120571;28;20046;-37
2024/01/24 04:47:45;;;;;;;2.95;1.80;;;22.30;41.50;;;;;;5121520;28;20047;-37
2024/01/24 04:50:12;;;;;;;2.13;1.60;;;22.30;41.70;;;;;;5117299;28;20044;-37
2024/01/24 04:52:38;;;;;;;2.57;1.80;;;22.30;41.60;;;;;;5117893;28;20032;-38
2024/01/24 04:55:09;;;;;;;2.70;1.70;;;22.40;41.50;;;;;;5114742;28;20028;-35
2024/01/24 04:57:36;;;;;;;3.08;2.22;;;22.40;41.60;;;;;;5114923;28;20035;-37
2024/01/24 05:00:07;;;;;;;4.28;1.77;;;22.40;41.70;;;;;;5120340;28;20023;-37
2024/01/24 05:02:33;;;;;;;2.65;1.92;;;22.30;41.60;;;;;;5120156;28;20036;-36
2024/01/24 05:04:59;;;;;;;1.87;1.57;;;22.30;41.80;;;;;;5119927;28;20031;-37
2024/01/24 05:07:25;;;;;;;4.20;2.03;;;22.30;41.60;;;;;;5113239;28;20028;-40
2024/01/24 05:09:51;;;;;;;2.50;2.10;;;22.30;41.50;;;;;;5118178;28;20090;-37
2024/01/24 05:12:17;;;;;;;3.67;2.00;;;22.40;41.50;;;;;;5121034;28;20077;-36
2024/01/24 05:14:44;;;;;;;3.80;2.13;;;22.40;41.50;;;;;;5115414;28;20039;-37
2024/01/24 05:17:10;;;;;;;1.88;1.67;;;22.40;41.60;;;;;;5117378;28;20028;-37
2024/01/24 05:19:36;;;;;;;2.90;1.70;;;22.30;41.70;;;;;;5111861;28;20023;-36
2024/01/24 05:22:02;;;;;;;2.70;1.67;;;22.30;41.80;;;;;;5111581;28;20063;-36
2024/01/24 05:24:28;;;;;;;2.47;1.98;;;22.30;41.60;;;;;;5114419;28;20304;-33
2024/01/24 05:26:54;;;;;;;3.17;2.25;;;22.40;41.50;;;;;;5116100;28;20034;-36
2024/01/24 05:29:21;;;;;;;3.15;2.20;;;22.40;41.60;;;;;;5115214;28;20035;-35
2024/01/24 05:31:50;;;;;;;3.05;2.00;;;22.40;41.90;;;;;;5117384;28;20040;-37
2024/01/24 05:34:16;;;;;;;2.92;1.83;;;22.40;42.10;;;;;;5115673;28;20036;-34
2024/01/24 05:36:42;;;;;;;2.80;1.80;;;22.40;42.00;;;;;;5120113;28;20028;-36
2024/01/24 05:39:08;;;;;;;2.10;1.50;;;22.30;42.00;;;;;;5116591;28;20404;-34
2024/01/24 05:41:38;;;;;;;3.60;1.92;;;22.30;41.80;;;;;;5118088;28;20020;-36
2024/01/24 05:44:04;;;;;;;2.67;2.20;;;22.40;41.80;;;;;;5119342;27;20035;-38
2024/01/24 05:46:30;;;;;;;2.22;1.80;;;22.40;41.60;;;;;;5114672;27;20105;-38
2024/01/24 05:48:57;;;;;;;2.60;1.92;;;22.40;41.70;;;;;;5118314;28;20040;-34
2024/01/24 05:51:23;;;;;;;3.63;2.03;;;22.40;41.70;;;;;;5116654;28;20031;-36
2024/01/24 05:53:49;;;;;;;3.05;2.10;;;22.40;42.10;;;;;;5115833;28;20043;-38
2024/01/24 05:56:15;;;;;;;2.22;1.90;;;22.40;42.20;;;;;;5118727;27;20096;-37
2024/01/24 05:58:41;;;;;;;5.20;2.08;;;22.30;42.10;;;;;;5115343;27;20053;-36
2024/01/24 06:01:07;;;;;;;2.97;2.10;;;22.40;42.00;;;;;;5119556;27;20192;-35
2024/01/24 06:03:33;;;;;;;3.10;2.20;;;22.40;41.80;;;;;;5118230;28;20126;-37
2024/01/24 06:05:59;;;;;;;2.70;1.95;;;22.40;41.90;;;;;;5119601;28;20047;-39
2024/01/24 06:08:25;;;;;;;2.53;1.70;;;22.40;41.90;;;;;;5118875;28;20101;-34
2024/01/24 06:10:52;;;;;;;3.03;2.10;;;22.40;41.90;;;;;;5118197;28;20024;-33
2024/01/24 06:13:18;;;;;;;2.75;2.17;;;22.40;42.00;;;;;;5120986;28;20097;-39
2024/01/24 06:15:44;;;;;;;3.00;2.10;;;22.30;41.90;;;;;;5120160;28;20023;-37
2024/01/24 06:18:10;;;;;;;3.20;2.10;;;22.40;41.80;;;;;;5120708;28;20107;-35
2024/01/24 06:20:36;;;;;;;3.45;2.25;;;22.40;41.80;;;;;;5121078;28;20020;-35
2024/01/24 06:23:02;;;;;;;3.85;2.22;;;22.40;41.70;;;;;;5120803;28;20031;-35
2024/01/24 06:25:28;;;;;;;3.03;1.98;;;22.40;41.90;;;;;;5118788;28;20032;-37
2024/01/24 06:27:55;;;;;;;3.50;1.85;;;22.40;41.90;;;;;;5120415;28;20047;-34
2024/01/24 06:30:22;;;;;;;3.58;1.83;;;22.40;42.00;;;;;;5120753;28;20130;-33
2024/01/24 06:32:48;;;;;;;6.20;2.10;;;22.30;41.80;;;;;;5118856;28;20023;-38
2024/01/24 06:35:14;;;;;;;2.75;2.00;;;22.40;41.70;;;;;;5115853;28;20038;-37
2024/01/24 06:37:40;;;;;;;3.13;2.10;;;22.40;41.70;;;;;;5112401;28;20024;-42
2024/01/24 06:40:09;;;;;;;3.95;2.00;;;22.40;41.80;;;;;;5111035;27;20153;-37
2024/01/24 06:42:36;;;;;;;3.70;2.28;;;22.40;41.90;;;;;;5112988;28;20028;-33
2024/01/24 06:45:03;;;;;;;3.15;2.05;;;22.40;41.90;;;;;;5112373;28;20218;-36
2024/01/24 06:47:29;;;;;;;2.92;1.85;;;22.30;41.90;;;;;;5110963;28;20546;-36
2024/01/24 06:49:55;;;;;;;2.58;2.10;;;22.30;41.90;;;;;;5109145;28;20039;-36
2024/01/24 06:52:21;;;;;;;3.00;2.20;;;22.40;41.90;;;;;;5107344;28;20059;-37
2024/01/24 06:54:47;;;;;;;2.53;2.10;;;22.40;41.80;;;;;;5109982;28;20036;-33
2024/01/24 06:57:13;;;;;;;2.83;2.22;;;22.40;41.90;;;;;;5105230;28;20032;-37
2024/01/24 06:59:39;;;;;;;2.83;1.70;;;22.40;42.00;;;;;;5104465;28;20055;-34
2024/01/24 07:02:06;;;;;;;2.13;1.92;;;22.40;42.10;;;;;;5109730;28;20039;-36
2024/01/24 07:04:32;;;;;;;3.08;2.15;;;22.30;42.00;;;;;;5107486;28;20035;-36
2024/01/24 07:06:59;;;;;;;3.33;2.17;;;22.30;42.00;;;;;;5106403;28;20053;-35
2024/01/24 07:09:25;;;;;;;2.63;2.10;;;22.40;41.80;;;;;;5112582;28;20035;-37
2024/01/24 07:11:51;;;;;;;2.30;2.00;;;22.40;42.00;;;;;;5116587;27;20023;-38
2024/01/24 07:14:17;;;;;;;4.37;2.50;;;22.40;42.00;;;;;;5117653;28;20087;-36
2024/01/24 07:16:44;;;;;;;5.53;2.55;;;22.40;42.20;;;;;;5108294;28;20043;-34
2024/01/24 07:19:10;;;;;;;;;;;22.30;42.30;;;;;;5111367;28;20026;-37
2024/01/24 07:21:36;;;;;;;3.05;2.00;;;22.30;42.20;;;;;;5114475;28;20292;-37
2024/01/24 07:24:03;;;;;;;3.85;2.10;;;22.30;42.10;;;;;;5112957;28;20464;-34
2024/01/24 07:26:29;;;;;;;3.08;1.98;;;22.40;42.10;;;;;;5114783;28;20066;-37
2024/01/24 07:28:55;;;;;;;2.75;2.30;;;22.40;42.10;;;;;;5114959;28;20811;-38
2024/01/24 07:31:22;;;;;;;3.70;2.38;;;22.40;42.10;;;;;;5109444;28;20066;-35
2024/01/24 07:33:48;;;;;;;2.43;1.80;;;22.30;42.30;;;;;;5117135;27;20032;-38
2024/01/24 07:36:14;;;;;;;2.90;2.15;;;22.30;42.30;;;;;;5114580;28;20024;-36
2024/01/24 07:38:40;;;;;;;3.00;2.17;;;22.30;42.10;;;;;;5114558;27;20031;-38
2024/01/24 07:41:07;;;;;;;3.50;2.20;;;22.30;42.20;;;;;;5114989;28;20046;-38
2024/01/24 07:43:34;;;;;;;2.95;2.22;;;22.40;42.10;;;;;;5114711;28;20057;-36
2024/01/24 07:46:01;;;;;;;2.53;2.03;;;22.40;42.20;;;;;;5115079;28;20040;-37
2024/01/24 07:48:27;;;;;;;2.60;2.05;;;22.30;42.30;;;;;;5112904;28;21125;-36
2024/01/24 07:50:53;;;;;;;2.15;1.90;;;22.30;42.30;;;;;;5115382;28;20028;-38
2024/01/24 07:53:19;;;;;;;2.47;1.95;;;22.30;42.40;;;;;;5113818;28;20035;-38
2024/01/24 07:55:45;;;;;;;2.65;2.17;;;22.30;42.40;;;;;;5114312;28;20134;-37
2024/01/24 07:58:11;;;;;;;3.28;2.10;;;22.30;42.20;;;;;;5115571;28;20151;-37
2024/01/24 08:00:37;;;;;;;2.55;2.13;;;22.30;42.20;;;;;;5112084;28;20028;-37
2024/01/24 08:03:04;;;;;;;3.17;2.30;;;22.40;42.20;;;;;;5115029;28;20028;-37
2024/01/24 08:05:32;;;;;;;2.35;1.90;;;22.30;42.40;;;;;;5114471;28;20028;-38
2024/01/24 08:07:58;;;;;;;2.42;2.00;;;22.30;42.40;;;;;;5118007;28;20032;-38
2024/01/24 08:10:24;;;;;;;2.50;2.10;;;22.30;42.40;;;;;;5115525;28;20142;-37
2024/01/24 08:12:50;;;;;;;2.15;1.80;;;22.30;42.40;;;;;;5109800;28;20024;-35
2024/01/24 08:15:16;;;;;;;2.42;1.90;;;22.30;42.30;;;;;;5121290;28;20039;-35
2024/01/24 08:17:43;;;;;;;2.90;2.00;;;22.30;42.30;;;;;;5119572;28;20036;-36
2024/01/24 08:20:10;;;;;;;2.85;2.22;;;22.30;42.40;;;;;;5116384;28;20472;-34
2024/01/24 08:22:36;;;;;;;2.70;2.00;;;22.30;42.60;;;;;;5106801;28;20062;-39
2024/01/24 08:25:02;;;;;;;1.95;1.70;;;22.30;42.50;;;;;;5117314;28;20031;-35
2024/01/24 08:27:28;;;;;;;2.03;1.83;;;22.20;42.50;;;;;;5120038;28;20054;-36
2024/01/24 08:29:56;;;;;;;2.42;2.05;;;22.20;42.40;;;;;;5120645;28;20055;-35
2024/01/24 08:32:23;;;;;;;1.90;1.70;;;22.30;42.40;;;;;;5119926;28;20357;-35
2024/01/24 08:34:49;;;;;;;3.00;2.13;;;22.30;42.40;;;;;;5113986;28;20118;-38
2024/01/24 08:37:15;;;;;;;2.15;1.92;;;22.30;42.50;;;;;;5120859;28;20024;-38
2024/01/24 08:39:41;;;;;;;2.25;2.00;;;22.30;42.60;;;;;;5112959;28;20571;-38
2024/01/24 08:42:07;;;;;;;2.72;2.00;;;22.30;42.60;;;;;;5121170;28;20316;-38
2024/01/24 08:44:34;;;;;;;2.17;1.70;;;22.20;42.60;;;;;;5112200;28;20032;-37
2024/01/24 08:47:00;;;;;;;2.27;2.07;;;22.20;42.40;;;;;;5114740;28;20036;-38
2024/01/24 08:49:27;;;;;;;2.35;1.90;;;22.30;42.40;;;;;;5116857;28;20059;-38
2024/01/24 08:51:53;;;;;;;2.90;1.98;;;22.30;43.20;;;;;;5123027;28;20027;-37
2024/01/24 08:54:19;;;;;;;2.33;1.90;;;22.30;43.00;;;;;;5123563;28;20030;-36
2024/01/24 08:56:45;;;;;;;3.22;2.03;;;22.30;42.90;;;;;;5120362;28;20059;-38
2024/01/24 08:59:11;;;;;;;2.10;1.90;;;22.30;43.10;;;;;;5107735;28;20054;-37
2024/01/24 09:01:37;;;;;;;1.70;1.60;;;22.20;43.00;;;;;;5113494;28;20027;-37
2024/01/24 09:04:04;;;;;;;2.28;1.65;;;22.20;42.90;;;;;;5109223;28;20091;-37
2024/01/24 09:06:31;;;;;;;2.28;1.80;;;22.30;42.70;;;;;;5110096;28;20031;-36
2024/01/24 09:08:57;;;;;;;2.15;1.70;;;22.30;42.70;;;;;;5113367;28;20043;-37
2024/01/24 09:11:23;;;;;;;2.22;1.85;;;22.30;42.60;;;;;;5119917;28;20075;-38
2024/01/24 09:13:50;;;;;;;1.98;1.70;;;22.30;42.70;;;;;;5118097;28;20114;-35
2024/01/24 09:16:17;;;;;;;1.85;1.65;;;22.20;42.80;;;;;;5115746;28;20020;-36
2024/01/24 09:18:43;;;;;;;2.05;1.60;;;22.20;42.80;;;;;;5111438;28;20028;-38
2024/01/24 09:21:09;;;;;;;1.70;1.55;;;22.20;42.80;;;;;;5117030;28;20051;-35
2024/01/24 09:23:55;;;;;;;1.83;1.50;;;22.30;42.70;;;;;;5077098;28;20048;-36
2024/01/24 09:26:21;;;;;;;1.95;1.75;;;22.30;42.70;;;;;;5070672;28;20095;-37
2024/01/24 09:28:48;;;;;;;1.70;1.60;;;22.30;42.80;;;;;;5080168;28;20056;-38
2024/01/24 09:31:14;;;;;;;1.90;1.60;;;22.20;42.90;;;;;;5054091;28;20021;-36
2024/01/24 09:33:40;;;;;;;2.00;1.50;;;22.20;42.80;;;;;;5071616;28;20060;-37
2024/01/24 09:36:07;;;;;;;2.25;1.67;;;22.20;43.00;;;;;;5079939;28;20044;-38
2024/01/24 09:38:33;;;;;;;2.20;1.70;;;22.20;43.00;;;;;;5078575;28;20029;-37
2024/01/24 09:41:00;;;;;;;2.30;1.60;;;22.30;42.90;;;;;;5081518;28;20067;-37
2024/01/24 09:43:28;;;;;;;1.55;1.45;;;22.30;42.80;;;;;;5079879;28;20063;-36
2024/01/24 09:45:56;;;;;;;1.50;1.35;;;22.30;43.00;;;;;;5074741;28;20040;-34
2024/01/24 09:48:22;;;;;;;1.50;1.40;;;22.30;43.10;;;;;;5063566;28;20521;-34
2024/01/24 09:50:49;;;;;;;1.30;1.20;;;22.20;43.00;;;;;;5074094;28;20044;-38
2024/01/24 09:53:17;;;;;;;1.60;1.50;;;22.20;43.10;;;;;;5065663;28;20025;-36
2024/01/24 09:55:43;;;;;;;1.67;1.50;;;22.20;43.10;;;;;;5077975;28;20234;-34
2024/01/24 09:58:09;;;;;;;1.60;1.50;;;22.30;43.00;;;;;;5063324;28;20043;-35
2024/01/24 10:00:35;;;;;;;2.53;1.20;;;22.30;43.00;;;;;;5073496;28;20040;-37
2024/01/24 10:03:02;;;;;;;1.40;1.30;;;22.30;43.20;;;;;;5115975;28;20108;-38
2024/01/24 10:05:28;;;;;;;2.47;1.52;;;22.30;43.20;;;;;;5095684;28;20527;-38
2024/01/24 10:07:54;;;;;;;1.45;1.33;;;22.30;43.10;;;;;;5110378;28;20504;-37
2024/01/24 10:10:20;;;;;;;2.90;1.30;;;22.20;43.00;;;;;;5122542;27;20062;-35
2024/01/24 10:12:46;;;;;;;2.20;1.48;;;22.20;43.10;;;;;;5120795;28;20024;-37
2024/01/24 10:15:13;;;;;;;1.55;1.42;;;22.30;43.10;;;;;;5120346;28;20595;-36
2024/01/24 10:17:42;;;;;;;1.20;1.10;;;22.30;43.20;;;;;;5119946;28;20043;-37
2024/01/24 10:20:11;;;;;;;1.20;1.10;;;22.30;43.50;;;;;;5114994;28;20020;-37
2024/01/24 10:22:39;;;;;;;1.02;0.93;;;22.30;43.60;;;;;;5119285;28;20032;-34
2024/01/24 10:25:06;;;;;;;1.10;1.00;;;22.30;43.50;;;;;;5121171;28;20035;-36
2024/01/24 10:27:37;;;;;;;1.10;1.00;;;22.30;43.50;;;;;;5120461;28;20067;-38
2024/01/24 10:30:08;;;;;;;1.33;1.23;;;22.30;43.20;;;;;;5121589;28;20066;-36
2024/01/24 10:32:35;;;;;;;1.17;1.00;;;22.30;43.00;;;;;;5114390;28;20024;-36
2024/01/24 10:35:04;;;;;;;1.30;1.20;;;22.30;43.10;;;;;;5119793;28;20107;-38
2024/01/24 10:37:32;;;;;;;1.38;1.25;;;22.30;43.20;;;;;;5117386;28;20109;-35
2024/01/24 10:40:00;;;;;;;1.30;1.20;;;22.30;43.30;;;;;;5115422;28;20445;-36
2024/01/24 10:42:26;;;;;;;1.10;1.00;;;22.30;43.40;;;;;;5120022;28;20027;-36
2024/01/24 10:44:52;;;;;;;1.20;1.10;;;22.30;43.30;;;;;;5099051;28;20019;-38
2024/01/24 10:47:18;;;;;;;1.05;0.95;;;22.30;43.20;;;;;;5118017;28;20091;-38
2024/01/24 10:49:44;;;;;;;1.27;1.17;;;22.40;43.10;;;;;;5115734;28;20024;-37
2024/01/24 10:52:11;;;;;;;1.10;1.00;;;22.40;43.20;;;;;;5118596;28;20102;-38
2024/01/24 10:54:37;;;;;;;1.10;1.00;;;22.40;43.20;;;;;;5117999;28;20552;-37
2024/01/24 10:57:06;;;;;;;1.10;1.00;;;22.30;43.40;;;;;;5117296;28;20069;-37
2024/01/24 10:59:33;;;;;;;0.93;0.82;;;22.30;43.40;;;;;;5108891;28;20031;-38
2024/01/24 11:02:00;;;;;;;1.20;1.10;;;22.30;43.40;;;;;;5107779;28;20022;-38
2024/01/24 11:04:26;;;;;;;1.13;1.02;;;22.30;43.80;;;;;;5106682;28;20034;-38
2024/01/24 11:07:02;;;;;;;0.90;0.90;;;22.40;43.50;;;;;;5112961;28;20024;-38
2024/01/24 11:09:35;;;;;;;1.40;1.10;;;22.40;43.50;;;;;;5112138;28;20040;-37
2024/01/24 11:12:01;;;;;;;1.05;0.95;;;22.40;43.70;;;;;;5111737;28;20031;-38
2024/01/24 11:14:33;;;;;;;1.02;0.93;;;22.30;43.60;;;;;;5109335;28;20028;-35
2024/01/24 11:17:01;;;;;;;1.50;1.10;;;22.30;43.70;;;;;;5109622;28;20106;-37
2024/01/24 11:19:28;;;;;;;1.20;1.10;;;22.30;43.50;;;;;;5112184;28;20031;-38
2024/01/24 11:21:55;;;;;;;1.20;1.10;;;22.30;43.30;;;;;;5112992;27;20031;-36
2024/01/24 11:24:39;;;;;;;1.23;1.13;;;22.40;43.40;;;;;;5112994;28;20043;-37
2024/01/24 11:27:33;;;;;;;1.42;1.17;;;22.40;43.50;;;;;;5113698;28;20044;-36
2024/01/24 11:30:16;;;;;;;1.05;0.95;;;22.40;43.60;;;;;;5113369;28;20823;-37
2024/01/24 11:32:45;;;;;;;0.90;0.90;;;22.30;43.60;;;;;;5114264;28;20167;-35
2024/01/24 11:35:37;;;;;;;1.00;0.90;;;22.30;43.50;;;;;;5116294;28;20062;-37
2024/01/24 11:38:27;;;;;;;1.00;0.90;;;22.40;43.30;;;;;;5119669;28;20636;-36
2024/01/24 11:40:56;;;;;;;1.02;0.90;;;22.40;43.30;;;;;;5115850;28;20070;-34
2024/01/24 11:43:33;;;;;;;1.00;0.90;;;22.40;43.40;;;;;;5114897;28;20394;-36
2024/01/24 11:46:05;;;;;;;1.00;0.90;;;22.30;43.50;;;;;;5107623;28;20034;-36
2024/01/24 11:48:33;;;;;;;1.00;0.90;;;22.30;43.60;;;;;;5115589;28;20040;-34
2024/01/24 11:51:00;;;;;;;1.35;1.25;;;22.30;43.40;;;;;;5121577;28;20028;-37
2024/01/24 11:53:26;;;;;;;0.88;0.88;;;22.30;43.40;;;;;;5118515;28;20031;-36
2024/01/24 11:55:56;;;;;;;1.00;0.90;;;22.40;43.30;;;;;;5119130;28;20023;-32
2024/01/24 11:58:26;;;;;;;0.95;0.85;;;22.40;43.40;;;;;;5113290;28;20022;-31
2024/01/24 12:01:02;;;;;;;1.20;1.10;;;22.40;43.50;;;;;;5111686;28;20028;-36
2024/01/24 12:03:29;;;;;;;1.00;1.00;;;22.30;43.50;;;;;;5112106;28;20061;-32
2024/01/24 12:05:55;;;;;;;1.02;0.70;;;22.30;43.60;;;;;;5114635;28;20045;-36
2024/01/24 12:08:21;;;;;;;0.90;0.88;;;22.30;43.40;;;;;;5113527;28;20496;-34
2024/01/24 12:10:47;;;;;;;0.93;0.75;;;22.30;43.30;;;;;;5113635;28;20093;-33
2024/01/24 12:13:14;;;;;;;0.85;0.73;;;22.40;43.30;;;;;;5113134;28;20012;-34
2024/01/24 12:15:42;;;;;;;0.80;0.80;;;22.40;43.40;;;;;;5110814;28;20042;-36
2024/01/24 12:18:16;;;;;;;0.88;0.82;;;22.40;43.60;;;;;;5113876;28;20043;-31
2024/01/24 12:20:49;;;;;;;0.70;0.70;;;22.40;43.60;;;;;;5113113;28;20023;-34
2024/01/24 12:23:15;;;;;;;0.75;0.75;;;22.30;43.50;;;;;;5113507;28;20030;-38
2024/01/24 12:25:45;;;;;;;0.87;0.80;;;22.30;43.50;;;;;;5115893;28;20084;-34
2024/01/24 12:28:11;;;;;;;0.70;0.60;;;22.30;43.40;;;;;;5115048;28;20058;-35
2024/01/24 12:30:38;;;;;;;1.02;0.80;;;22.40;43.30;;;;;;5115213;28;20215;-32
2024/01/24 12:33:04;;;;;;;0.40;0.40;;;22.40;44.10;;;;;;5118019;28;20035;-31
2024/01/24 12:35:31;;;;;;;0.80;0.70;;;22.40;43.40;;;;;;5119725;28;20027;-37
2024/01/24 12:37:58;;;;;;;0.82;0.70;;;22.40;44.00;;;;;;5120507;28;20031;-37
2024/01/24 12:40:24;;;;;;;0.90;0.70;;;22.40;44.10;;;;;;5121449;28;20216;-37
2024/01/24 12:42:51;;;;;;;0.82;0.80;;;22.30;43.80;;;;;;5118179;28;20092;-35
2024/01/24 12:45:18;;;;;;;1.00;0.90;;;22.40;43.60;;;;;;5120235;28;20058;-35
2024/01/24 12:47:44;;;;;;;0.65;0.60;;;22.40;43.50;;;;;;5117616;28;20123;-36